createdAt,value
2018-08-25T00:00:21.617Z,62.29
2018-08-25T00:02:50.330Z,62.17
2018-08-25T00:05:19.141Z,61.97
2018-08-25T00:07:47.864Z,62.12
2018-08-25T00:10:16.991Z,62.35
2018-08-25T00:13:03.638Z,62.19
2018-08-25T00:15:32.474Z,63.12
2018-08-25T00:18:18.387Z,63.17
2018-08-25T00:20:47.284Z,62.98
2018-08-25T00:23:16.002Z,62.92
2018-08-25T00:25:44.695Z,63.05
2018-08-25T00:28:13.357Z,63.84
2018-08-25T00:30:47.204Z,64.23
2018-08-25T00:33:15.916Z,63.44
2018-08-25T00:35:44.630Z,63.77
2018-08-25T00:38:13.338Z,63.55
2018-08-25T00:40:42.131Z,63.39
2018-08-25T00:43:10.874Z,62.87
2018-08-25T00:45:39.700Z,63.25
2018-08-25T00:48:08.504Z,63.67
2018-08-25T00:50:37.417Z,64.64
2018-08-25T00:53:06.192Z,64.28
2018-08-25T00:55:34.936Z,64.94
2018-08-25T00:58:03.695Z,65.15
2018-08-25T01:00:32.413Z,65.55
2018-08-25T01:03:01.162Z,65.66
2018-08-25T01:05:30.024Z,66.05
2018-08-25T01:07:58.744Z,66.17
2018-08-25T01:10:27.433Z,66.24
2018-08-25T01:12:56.195Z,66.08
2018-08-25T01:15:24.887Z,66.98
2018-08-25T01:17:53.539Z,66.27
2018-08-25T01:20:22.263Z,67.29
2018-08-25T01:22:51.020Z,67.66
2018-08-25T01:25:19.704Z,67.58
2018-08-25T01:27:48.424Z,67.56
2018-08-25T01:30:17.194Z,68.74
2018-08-25T01:32:45.863Z,68.35
2018-08-25T01:35:14.558Z,69.63
2018-08-25T01:37:43.313Z,69.29
2018-08-25T01:40:12.006Z,70.22
2018-08-25T01:42:41.176Z,70.89
2018-08-25T01:45:09.869Z,71.71
2018-08-25T01:47:38.820Z,71.82
2018-08-25T01:50:07.521Z,72.54
2018-08-25T01:52:36.229Z,73.05
2018-08-25T01:55:05.011Z,72.79
2018-08-25T01:57:33.863Z,73.42
2018-08-25T02:00:03.831Z,73.80
2018-08-25T02:02:32.564Z,74.05
2018-08-25T02:05:01.327Z,74.47
2018-08-25T02:07:30.147Z,74.54
2018-08-25T02:09:58.858Z,75.21
2018-08-25T02:12:27.552Z,75.51
2018-08-25T02:14:56.286Z,75.31
2018-08-25T02:17:28.195Z,75.34
2018-08-25T02:19:57.011Z,75.61
2018-08-25T02:22:25.711Z,74.72
2018-08-25T02:24:56.574Z,75.61
2018-08-25T02:27:25.329Z,75.29
2018-08-25T02:29:54.075Z,75.17
2018-08-25T02:32:22.763Z,76.35
2018-08-25T02:34:51.489Z,76.16
2018-08-25T02:37:20.188Z,76.19
2018-08-25T02:39:48.881Z,76.62
2018-08-25T02:42:17.667Z,76.76
2018-08-25T02:44:46.435Z,76.26
2018-08-25T02:47:15.150Z,76.47
2018-08-25T02:49:43.936Z,76.33
2018-08-25T02:52:12.625Z,76.35
2018-08-25T02:54:41.404Z,76.37
2018-08-25T02:57:10.211Z,76.93
2018-08-25T02:59:39.047Z,76.44
2018-08-25T03:02:07.787Z,77.08
2018-08-25T03:04:36.526Z,77.49
2018-08-25T03:07:05.369Z,77.51
2018-08-25T03:09:34.046Z,77.20
2018-08-25T03:12:02.800Z,77.19
2018-08-25T03:14:31.526Z,78.16
2018-08-25T03:17:00.335Z,78.34
2018-08-25T03:19:29.267Z,77.98
2018-08-25T03:21:58.153Z,77.48
2018-08-25T03:24:26.946Z,77.77
2018-08-25T03:26:55.794Z,77.86
2018-08-25T03:29:24.579Z,77.76
2018-08-25T03:31:53.371Z,78.28
2018-08-25T03:34:22.123Z,78.01
2018-08-25T03:36:50.826Z,78.17
2018-08-25T03:39:19.556Z,78.96
2018-08-25T03:41:48.268Z,78.64
2018-08-25T03:44:17.084Z,79.71
2018-08-25T03:46:45.885Z,79.82
2018-08-25T03:49:14.593Z,80.02
2018-08-25T03:51:43.470Z,79.51
2018-08-25T03:54:12.179Z,79.68
2018-08-25T03:56:40.972Z,80.05
2018-08-25T03:59:09.688Z,80.62
2018-08-25T04:01:38.510Z,80.73
2018-08-25T04:04:07.228Z,80.14
2018-08-25T04:06:35.962Z,80.21
2018-08-25T04:09:06.691Z,80.00
2018-08-25T04:11:35.497Z,80.21
2018-08-25T04:14:04.238Z,79.04
2018-08-25T04:16:32.952Z,78.54
2018-08-25T04:19:01.600Z,77.28
2018-08-25T04:21:30.491Z,75.68
2018-08-25T04:23:59.317Z,74.02
2018-08-25T04:26:28.076Z,72.93
2018-08-25T04:28:56.837Z,71.03
2018-08-25T04:31:25.648Z,71.34
2018-08-25T04:33:54.471Z,71.24
2018-08-25T04:36:23.299Z,70.71
2018-08-25T04:38:52.090Z,70.39
2018-08-25T04:41:20.952Z,69.99
2018-08-25T04:43:49.735Z,69.89
2018-08-25T04:46:18.492Z,69.49
2018-08-25T04:48:47.430Z,67.94
2018-08-25T04:51:16.922Z,69.00
2018-08-25T04:53:46.190Z,68.21
2018-08-25T04:56:15.905Z,67.54
2018-08-25T04:58:44.838Z,67.73
2018-08-25T05:01:13.611Z,66.94
2018-08-25T05:03:42.424Z,67.17
2018-08-25T05:06:11.242Z,66.98
2018-08-25T05:08:40.091Z,66.40
2018-08-25T05:11:09.358Z,66.97
2018-08-25T05:13:38.148Z,66.01
2018-08-25T05:16:06.993Z,65.21
2018-08-25T05:18:35.731Z,63.31
2018-08-25T05:21:04.581Z,62.92
2018-08-25T05:23:33.321Z,62.87
2018-08-25T05:26:02.164Z,61.16
2018-08-25T05:28:30.903Z,60.19
2018-08-25T05:30:59.614Z,59.93
2018-08-25T05:33:28.488Z,58.61
2018-08-25T05:35:57.290Z,57.92
2018-08-25T05:38:26.239Z,57.93
2018-08-25T05:40:55.701Z,58.83
2018-08-25T05:43:24.490Z,57.23
2018-08-25T05:45:53.331Z,57.00
2018-08-25T05:48:22.183Z,58.45
2018-08-25T05:50:51.046Z,57.31
2018-08-25T05:53:19.747Z,58.46
2018-08-25T05:55:48.503Z,57.05
2018-08-25T05:58:17.276Z,58.51
2018-08-25T06:00:46.076Z,57.83
2018-08-25T06:03:14.887Z,59.21
2018-08-25T06:05:43.645Z,61.93
2018-08-25T06:08:12.535Z,60.92
2018-08-25T06:10:41.343Z,59.65
2018-08-25T06:13:10.124Z,59.97
2018-08-25T06:15:38.850Z,60.50
2018-08-25T06:18:07.839Z,61.90
2018-08-25T06:20:36.678Z,62.35
2018-08-25T06:23:05.429Z,62.36
2018-08-25T06:25:34.253Z,62.17
2018-08-25T06:28:03.067Z,62.72
2018-08-25T06:30:31.802Z,62.08
2018-08-25T06:33:00.663Z,62.38
2018-08-25T06:35:29.430Z,62.04
2018-08-25T06:37:58.325Z,60.44
2018-08-25T06:40:27.024Z,60.25
2018-08-25T06:42:55.803Z,57.47
2018-08-25T06:45:24.675Z,57.20
2018-08-25T06:47:53.421Z,55.43
2018-08-25T06:50:22.259Z,53.79
2018-08-25T06:52:51.165Z,54.20
2018-08-25T06:55:20.119Z,51.37
2018-08-25T06:57:48.984Z,49.46
2018-08-25T07:00:17.779Z,48.77
2018-08-25T07:02:46.859Z,48.94
2018-08-25T07:05:15.755Z,48.40
2018-08-25T07:07:44.645Z,48.83
2018-08-25T07:10:13.484Z,47.56
2018-08-25T07:12:42.466Z,49.23
2018-08-25T07:15:11.237Z,47.97
2018-08-25T07:17:40.315Z,46.75
2018-08-25T07:20:09.011Z,47.22
2018-08-25T07:22:37.847Z,47.88
2018-08-25T07:25:07.290Z,47.07
2018-08-25T07:27:36.095Z,47.81
2018-08-25T07:30:06.476Z,46.50
2018-08-25T07:32:35.216Z,45.05
2018-08-25T07:35:04.277Z,44.57
2018-08-25T07:37:33.138Z,45.19
2018-08-25T07:40:01.980Z,45.22
2018-08-25T07:42:30.890Z,45.92
2018-08-25T07:44:59.683Z,46.30
2018-08-25T07:47:28.595Z,45.98
2018-08-25T07:49:57.478Z,45.96
2018-08-25T07:52:26.407Z,44.35
2018-08-25T07:54:55.188Z,43.55
2018-08-25T07:57:23.972Z,44.43
2018-08-25T07:59:52.797Z,44.85
2018-08-25T08:02:21.608Z,45.50
2018-08-25T08:04:50.494Z,44.59
2018-08-25T08:07:19.302Z,45.29
2018-08-25T08:09:48.207Z,44.34
2018-08-25T08:12:17.131Z,42.64
2018-08-25T08:14:45.960Z,41.77
2018-08-25T08:17:14.725Z,43.06
2018-08-25T08:19:43.442Z,42.31
2018-08-25T08:22:12.215Z,40.39
2018-08-25T08:24:41.107Z,42.56
2018-08-25T08:27:09.862Z,41.36
2018-08-25T08:29:38.667Z,41.85
2018-08-25T08:32:07.709Z,41.17
2018-08-25T08:34:37.015Z,40.29
2018-08-25T08:37:06.296Z,39.24
2018-08-25T08:39:35.575Z,38.55
2018-08-25T08:42:04.381Z,39.39
2018-08-25T08:44:33.297Z,40.36
2018-08-25T08:47:02.016Z,39.11
2018-08-25T08:49:30.835Z,37.12
2018-08-25T08:51:59.579Z,38.16
2018-08-25T08:54:28.402Z,38.08
2018-08-25T08:56:57.245Z,37.73
2018-08-25T08:59:26.063Z,37.06
2018-08-25T09:01:54.957Z,35.74
2018-08-25T09:04:23.848Z,36.37
2018-08-25T09:06:52.633Z,37.16
2018-08-25T09:09:21.285Z,36.80
2018-08-25T09:11:50.265Z,36.43
2018-08-25T09:14:18.995Z,37.26
2018-08-25T09:16:47.806Z,37.07
2018-08-25T09:19:16.654Z,36.39
2018-08-25T09:21:45.533Z,35.32
2018-08-25T09:24:14.234Z,35.64
2018-08-25T09:26:43.013Z,33.94
2018-08-25T09:29:11.695Z,34.56
2018-08-25T09:31:40.498Z,34.79
2018-08-25T09:34:09.152Z,36.36
2018-08-25T09:36:38.144Z,35.26
2018-08-25T09:39:09.475Z,35.42
2018-08-25T09:41:38.546Z,34.70
2018-08-25T09:44:07.350Z,34.88
2018-08-25T09:46:36.152Z,33.61
2018-08-25T09:49:04.945Z,31.17
2018-08-25T09:51:34.427Z,32.43
2018-08-25T09:54:03.381Z,33.40
2018-08-25T09:56:32.183Z,33.70
2018-08-25T09:59:01.285Z,32.85
2018-08-25T10:01:30.974Z,33.70
2018-08-25T10:04:00.049Z,32.15
2018-08-25T10:06:29.090Z,31.38
2018-08-25T10:08:57.925Z,32.56
2018-08-25T10:11:26.848Z,31.87
2018-08-25T10:13:55.575Z,31.38
2018-08-25T10:16:24.631Z,32.55
2018-08-25T10:18:53.439Z,31.78
2018-08-25T10:21:22.296Z,29.70
2018-08-25T10:23:51.066Z,30.13
2018-08-25T10:26:19.912Z,31.76
2018-08-25T10:28:48.745Z,32.39
2018-08-25T10:31:17.552Z,31.79
2018-08-25T10:33:46.339Z,29.43
2018-08-25T10:36:15.187Z,31.13
2018-08-25T10:38:45.407Z,30.58
2018-08-25T10:41:14.391Z,29.17
2018-08-25T10:43:43.323Z,28.29
2018-08-25T10:46:12.319Z,29.84
2018-08-25T10:48:41.171Z,28.96
2018-08-25T10:51:09.970Z,27.50
2018-08-25T10:53:39.785Z,29.83
2018-08-25T10:56:08.818Z,29.78
2018-08-25T10:58:37.667Z,30.65
2018-08-25T11:01:06.635Z,30.93
2018-08-25T11:03:35.474Z,30.73
2018-08-25T11:06:04.449Z,30.59
2018-08-25T11:08:33.309Z,32.01
2018-08-25T11:11:02.273Z,32.41
2018-08-25T11:13:31.258Z,31.83
2018-08-25T11:16:00.043Z,31.16
2018-08-25T11:18:28.874Z,29.85
2018-08-25T11:20:57.926Z,29.37
2018-08-25T11:23:26.719Z,27.60
2018-08-25T11:25:55.517Z,26.50
2018-08-25T11:28:24.370Z,26.93
2018-08-25T11:30:53.200Z,26.95
2018-08-25T11:33:21.996Z,27.29
2018-08-25T11:35:50.821Z,26.31
2018-08-25T11:38:19.659Z,27.01
2018-08-25T11:40:48.495Z,25.93
2018-08-25T11:43:17.254Z,26.59
2018-08-25T11:45:46.001Z,26.45
2018-08-25T11:48:14.731Z,26.78
2018-08-25T11:50:43.622Z,26.43
2018-08-25T11:53:12.504Z,26.94
2018-08-25T11:55:41.310Z,27.73
2018-08-25T11:58:10.050Z,27.98
2018-08-25T12:00:38.837Z,29.49
2018-08-25T12:03:07.528Z,30.70
2018-08-25T12:05:36.227Z,31.08
2018-08-25T12:08:05.012Z,37.76
2018-08-25T12:10:33.788Z,39.99
2018-08-25T12:13:02.530Z,41.03
2018-08-25T12:15:31.288Z,41.22
2018-08-25T12:18:00.176Z,40.84
2018-08-25T12:20:28.944Z,40.60
2018-08-25T12:22:57.674Z,40.66
2018-08-25T12:25:26.465Z,40.57
2018-08-25T12:27:55.277Z,40.49
2018-08-25T12:30:24.317Z,40.00
2018-08-25T12:32:53.099Z,41.13
2018-08-25T12:35:36.694Z,41.68
2018-08-25T12:38:05.769Z,42.70
2018-08-25T12:40:34.478Z,42.05
2018-08-25T12:43:03.335Z,40.90
2018-08-25T12:45:32.543Z,41.23
2018-08-25T12:48:01.313Z,41.45
2018-08-25T12:50:30.093Z,40.53
2018-08-25T12:52:58.815Z,40.77
2018-08-25T12:55:27.585Z,39.04
2018-08-25T12:57:56.267Z,39.03
2018-08-25T13:00:24.977Z,38.86
2018-08-25T13:02:53.682Z,39.01
2018-08-25T13:05:22.405Z,36.95
2018-08-25T13:07:51.043Z,35.83
2018-08-25T13:10:19.756Z,35.70
2018-08-25T13:12:48.360Z,37.14
2018-08-25T13:15:17.030Z,38.08
2018-08-25T13:17:45.747Z,38.14
2018-08-25T13:20:14.432Z,37.82
2018-08-25T13:22:43.061Z,37.30
2018-08-25T13:25:11.703Z,38.06
2018-08-25T13:27:40.398Z,38.69
2018-08-25T13:30:09.198Z,38.33
2018-08-25T13:32:37.862Z,38.66
2018-08-25T13:35:06.756Z,38.57
2018-08-25T13:37:35.692Z,38.41
2018-08-25T13:40:04.632Z,39.12
2018-08-25T13:42:33.211Z,39.18
2018-08-25T13:45:01.975Z,39.00
2018-08-25T13:47:30.718Z,37.91
2018-08-25T13:49:59.358Z,36.35
2018-08-25T13:52:28.131Z,37.95
2018-08-25T13:54:56.782Z,38.43
2018-08-25T13:57:25.495Z,37.96
2018-08-25T13:59:54.224Z,38.25
2018-08-25T14:02:22.901Z,37.11
2018-08-25T14:04:51.685Z,36.95
2018-08-25T14:07:20.625Z,37.84
2018-08-25T14:09:50.015Z,37.64
2018-08-25T14:12:18.673Z,38.99
2018-08-25T14:14:47.464Z,39.94
2018-08-25T14:17:16.114Z,40.21
2018-08-25T14:19:45.398Z,40.05
2018-08-25T14:22:14.081Z,40.83
2018-08-25T14:24:42.792Z,40.97
2018-08-25T14:27:11.466Z,41.38
2018-08-25T14:29:40.178Z,41.39
2018-08-25T14:32:08.864Z,41.12
2018-08-25T14:34:37.631Z,39.40
2018-08-25T14:37:06.422Z,39.81
2018-08-25T14:39:35.147Z,39.35
2018-08-25T14:42:03.901Z,39.91
2018-08-25T14:44:32.605Z,40.05
2018-08-25T14:47:01.365Z,40.64
2018-08-25T14:49:30.034Z,41.83
2018-08-25T14:51:58.745Z,42.11
2018-08-25T14:54:27.472Z,42.09
2018-08-25T14:56:56.171Z,41.83
2018-08-25T14:59:25.138Z,41.73
2018-08-25T15:01:53.809Z,41.45
2018-08-25T15:04:23.386Z,41.22
2018-08-25T15:06:52.021Z,40.84
2018-08-25T15:09:20.683Z,40.78
2018-08-25T15:11:49.433Z,40.86
2018-08-25T15:14:18.106Z,39.75
2018-08-25T15:16:46.746Z,40.25
2018-08-25T15:19:15.427Z,39.93
2018-08-25T15:21:44.159Z,38.75
2018-08-25T15:24:12.914Z,40.13
2018-08-25T15:26:41.690Z,39.51
2018-08-25T15:29:10.412Z,39.95
2018-08-25T15:31:39.173Z,39.21
2018-08-25T15:34:08.804Z,39.51
2018-08-25T15:36:37.679Z,40.50
2018-08-25T15:39:10.579Z,39.13
2018-08-25T15:41:39.449Z,38.70
2018-08-25T15:44:08.166Z,39.75
2018-08-25T15:46:36.894Z,40.54
2018-08-25T15:49:05.990Z,41.50
2018-08-25T15:51:34.712Z,42.31
2018-08-25T15:54:03.514Z,41.99
2018-08-25T15:56:32.261Z,41.93
2018-08-25T15:59:01.083Z,42.03
2018-08-25T16:01:29.847Z,42.55
2018-08-25T16:03:59.176Z,43.93
2018-08-25T16:06:28.024Z,45.18
2018-08-25T16:08:56.846Z,46.05
2018-08-25T16:11:25.645Z,45.59
2018-08-25T16:13:54.539Z,45.21
2018-08-25T16:16:23.343Z,45.18
2018-08-25T16:18:52.231Z,46.04
2018-08-25T16:21:21.241Z,46.36
2018-08-25T16:23:50.244Z,45.92
2018-08-25T16:26:19.215Z,46.89
2018-08-25T16:28:48.011Z,47.17
2018-08-25T16:31:16.819Z,45.76
2018-08-25T16:33:45.556Z,45.86
2018-08-25T16:36:14.355Z,45.90
2018-08-25T16:38:43.247Z,45.96
2018-08-25T16:41:12.064Z,45.97
2018-08-25T16:43:40.854Z,46.02
2018-08-25T16:46:09.653Z,46.99
2018-08-25T16:48:38.369Z,46.96
2018-08-25T16:51:07.633Z,47.66
2018-08-25T16:53:37.756Z,47.39
2018-08-25T16:56:06.881Z,47.24
2018-08-25T16:58:35.531Z,47.62
2018-08-25T17:01:04.329Z,47.75
2018-08-25T17:03:33.135Z,48.17
2018-08-25T17:06:01.878Z,48.98
2018-08-25T17:08:30.568Z,49.68
2018-08-25T17:10:59.359Z,50.10
2018-08-25T17:13:28.113Z,50.26
2018-08-25T17:15:56.939Z,49.77
2018-08-25T17:18:25.621Z,49.99
2018-08-25T17:20:54.340Z,50.11
2018-08-25T17:23:23.063Z,48.84
2018-08-25T17:25:51.743Z,49.34
2018-08-25T17:28:20.438Z,49.01
2018-08-25T17:30:49.086Z,49.05
2018-08-25T17:33:17.809Z,48.76
2018-08-25T17:35:46.521Z,49.22
2018-08-25T17:38:15.275Z,49.37
2018-08-25T17:40:43.959Z,49.28
2018-08-25T17:43:12.687Z,48.77
2018-08-25T17:45:41.890Z,48.45
2018-08-25T17:48:10.567Z,48.15
2018-08-25T17:50:39.373Z,48.40
2018-08-25T17:53:08.136Z,48.97
2018-08-25T17:55:36.857Z,50.20
2018-08-25T17:58:05.674Z,50.26
2018-08-25T18:00:34.376Z,49.91
2018-08-25T18:03:03.075Z,51.50
2018-08-25T18:05:31.818Z,52.52
2018-08-25T18:08:00.552Z,53.51
2018-08-25T18:10:29.190Z,54.36
2018-08-25T18:12:57.952Z,55.03
2018-08-25T18:15:26.660Z,54.76
2018-08-25T18:17:55.330Z,55.46
2018-08-25T18:20:23.995Z,55.75
2018-08-25T18:22:52.716Z,55.91
2018-08-25T18:25:21.975Z,56.36
2018-08-25T18:27:50.671Z,56.18
2018-08-25T18:30:19.410Z,55.99
2018-08-25T18:32:48.137Z,55.65
2018-08-25T18:35:16.875Z,56.50
2018-08-25T18:37:45.821Z,56.25
2018-08-25T18:40:14.496Z,56.85
2018-08-25T18:42:43.188Z,56.98
2018-08-25T18:45:11.875Z,57.11
2018-08-25T18:47:40.579Z,57.96
2018-08-25T18:50:09.343Z,57.95
2018-08-25T18:52:38.028Z,58.09
2018-08-25T18:55:06.913Z,58.97
2018-08-25T18:57:35.595Z,58.60
2018-08-25T19:00:05.371Z,59.43
2018-08-25T19:02:34.048Z,59.00
2018-08-25T19:05:02.727Z,59.89
2018-08-25T19:07:31.592Z,59.04
2018-08-25T19:10:00.339Z,59.78
2018-08-25T19:12:29.004Z,59.36
2018-08-25T19:14:58.210Z,60.50
2018-08-25T19:17:26.885Z,60.63
2018-08-25T19:19:55.607Z,59.74
2018-08-25T19:22:24.347Z,60.17
2018-08-25T19:24:52.995Z,60.24
2018-08-25T19:27:21.752Z,60.48
2018-08-25T19:29:50.518Z,61.31
2018-08-25T19:32:19.218Z,61.01
2018-08-25T19:34:47.880Z,62.09
2018-08-25T19:37:16.563Z,62.23
2018-08-25T19:39:45.210Z,62.62
2018-08-25T19:42:13.974Z,62.79
2018-08-25T19:44:42.676Z,62.13
2018-08-25T19:47:11.668Z,62.89
2018-08-25T19:49:40.551Z,62.19
2018-08-25T19:52:09.611Z,60.38
2018-08-25T19:54:38.262Z,60.44
2018-08-25T19:57:06.985Z,60.23
2018-08-25T19:59:36.006Z,59.75
2018-08-25T20:02:04.714Z,60.48
2018-08-25T20:04:33.406Z,61.32
2018-08-25T20:07:02.035Z,62.67
2018-08-25T20:09:30.920Z,62.98
2018-08-25T20:11:59.506Z,64.12
2018-08-25T20:14:28.233Z,64.19
2018-08-25T20:16:56.934Z,63.61
2018-08-25T20:19:25.656Z,63.50
2018-08-25T20:21:54.286Z,63.54
2018-08-25T20:24:22.939Z,63.95
2018-08-25T20:26:51.593Z,63.79
2018-08-25T20:29:20.403Z,64.12
2018-08-25T20:31:49.123Z,64.15
2018-08-25T20:34:23.202Z,65.02
2018-08-25T20:36:55.269Z,64.90
2018-08-25T20:39:28.452Z,64.87
2018-08-25T20:41:57.396Z,64.09
2018-08-25T20:44:28.946Z,63.80
2018-08-25T20:46:58.067Z,64.22
2018-08-25T20:49:27.607Z,63.90
2018-08-25T20:51:56.355Z,63.48
2018-08-25T20:54:25.380Z,64.30
2018-08-25T20:56:54.193Z,63.27
2018-08-25T20:59:23.332Z,63.60
2018-08-25T21:01:52.074Z,64.24
2018-08-25T21:04:20.915Z,63.90
2018-08-25T21:06:49.722Z,63.71
2018-08-25T21:09:18.550Z,64.03
2018-08-25T21:11:47.389Z,64.48
2018-08-25T21:14:16.307Z,64.25
2018-08-25T21:16:45.167Z,63.85
2018-08-25T21:19:13.906Z,63.97
2018-08-25T21:21:42.688Z,64.07
2018-08-25T21:24:14.849Z,63.41
2018-08-25T21:26:43.641Z,64.02
2018-08-25T21:29:12.357Z,64.60
2018-08-25T21:31:41.057Z,64.73
2018-08-25T21:34:09.726Z,65.30
2018-08-25T21:36:38.438Z,65.32
2018-08-25T21:39:10.224Z,65.34
2018-08-25T21:41:38.986Z,65.62
2018-08-25T21:44:07.864Z,64.58
2018-08-25T21:46:36.610Z,64.74
2018-08-25T21:49:05.357Z,64.31
2018-08-25T21:51:34.374Z,64.73
2018-08-25T21:54:03.111Z,64.08
2018-08-25T21:56:31.783Z,64.82
2018-08-25T21:59:00.517Z,64.88
2018-08-25T22:01:33.289Z,65.03
2018-08-25T22:04:02.033Z,65.52
2018-08-25T22:06:30.802Z,64.32
2018-08-25T22:08:59.749Z,65.11
2018-08-25T22:11:28.475Z,65.61
2018-08-25T22:13:57.179Z,66.48
2018-08-25T22:16:25.885Z,67.42
2018-08-25T22:18:54.554Z,67.35
2018-08-25T22:21:23.519Z,68.37
2018-08-25T22:23:52.189Z,69.01
2018-08-25T22:26:20.942Z,69.20
2018-08-25T22:28:49.743Z,69.51
2018-08-25T22:31:18.515Z,69.18
2018-08-25T22:33:47.502Z,69.98
2018-08-25T22:36:16.207Z,69.60
2018-08-25T22:38:44.987Z,70.42
2018-08-25T22:41:13.723Z,71.33
2018-08-25T22:43:42.536Z,71.99
2018-08-25T22:46:11.356Z,72.71
2018-08-25T22:48:40.716Z,73.52
2018-08-25T22:51:09.603Z,74.26
2018-08-25T22:53:38.457Z,73.83
2018-08-25T22:56:07.324Z,73.97
2018-08-25T22:58:36.243Z,73.93
2018-08-25T23:01:04.978Z,74.86
2018-08-25T23:03:33.709Z,75.58
2018-08-25T23:06:02.488Z,75.64
2018-08-25T23:08:31.293Z,74.51
2018-08-25T23:11:00.014Z,75.58
2018-08-25T23:13:28.724Z,76.03
2018-08-25T23:15:57.455Z,76.59
2018-08-25T23:18:26.247Z,75.96
2018-08-25T23:20:54.951Z,76.93
2018-08-25T23:23:23.635Z,77.01
2018-08-25T23:25:52.313Z,76.26
2018-08-25T23:28:20.987Z,77.03
2018-08-25T23:30:49.686Z,76.98
2018-08-25T23:33:18.325Z,76.86
2018-08-25T23:35:47.047Z,76.14
2018-08-25T23:38:15.795Z,76.91
2018-08-25T23:40:44.614Z,76.49
2018-08-25T23:43:13.291Z,76.67
2018-08-25T23:45:42.048Z,76.25
2018-08-25T23:48:10.792Z,75.64
2018-08-25T23:50:39.540Z,75.67
2018-08-25T23:53:08.317Z,76.12
2018-08-25T23:55:37.103Z,77.35
2018-08-25T23:58:05.849Z,78.10
